Time;durP1;ratioP1;P1;durP2;ratioP2;P2;SDS_P1;SDS_P2;PMS_P1;PMS_P2;Temp;Humidity;BMP_temperature;BMP_pressure;BME280_temperature;BME280_humidity;BME280_pressure;Samples;Min_cycle;Max_cycle;Signal;HPM_P1;HPM_P2
2023/05/29 00:00:33;;;;;;;8.90;1.90;;;;;;;12.54;100.00;100592.19;105795;1254;61605;-41
2023/05/29 00:03:01;;;;;;;5.40;2.10;;;;;;;12.54;100.00;100595.31;105784;1257;60515;-41
2023/05/29 00:05:29;;;;;;;9.30;2.40;;;;;;;12.55;100.00;100596.50;105841;1252;72538;-41
2023/05/29 00:07:57;;;;;;;7.50;2.10;;;;;;;12.54;100.00;100590.64;105857;1254;65245;-41
2023/05/29 00:10:25;;;;;;;7.50;2.80;;;;;;;12.54;100.00;100590.29;105761;1254;72719;-41
2023/05/29 00:12:52;;;;;;;3.40;2.10;;;;;;;12.54;100.00;100590.11;105780;1254;61558;-41
2023/05/29 00:15:20;;;;;;;7.90;2.60;;;;;;;12.54;100.00;100588.89;105776;1254;60415;-41
2023/05/29 00:17:49;;;;;;;8.10;2.20;;;;;;;12.51;100.00;100592.61;105756;1256;73590;-41
2023/05/29 00:20:18;;;;;;;7.40;2.50;;;;;;;12.45;100.00;100591.00;105815;1253;64054;-41
2023/05/29 00:22:46;;;;;;;7.10;2.40;;;;;;;12.41;100.00;100596.83;105777;1257;70376;-41
2023/05/29 00:25:14;;;;;;;3.70;2.00;;;;;;;12.36;100.00;100605.59;105866;1253;61968;-41
2023/05/29 00:27:42;;;;;;;5.30;2.10;;;;;;;12.32;100.00;100610.54;105835;1253;60488;-42
2023/05/29 00:30:10;;;;;;;21.50;2.30;;;;;;;12.26;100.00;100613.60;105761;1256;74510;-41
2023/05/29 00:32:38;;;;;;;6.60;2.30;;;;;;;12.22;100.00;100615.77;105826;1253;65284;-41
2023/05/29 00:35:06;;;;;;;4.80;1.80;;;;;;;12.17;100.00;100622.80;105697;1254;72585;-42
2023/05/29 00:37:34;;;;;;;13.50;2.70;;;;;;;12.12;100.00;100628.46;105728;1254;61594;-42
2023/05/29 00:40:03;;;;;;;6.50;2.40;;;;;;;12.07;100.00;100632.54;105696;1257;60494;-41
2023/05/29 00:42:30;;;;;;;5.20;2.30;;;;;;;12.02;100.00;100643.71;105688;1254;73884;-41
2023/05/29 00:44:58;;;;;;;5.20;2.50;;;;;;;11.98;100.00;100650.16;105798;1254;65345;-41
2023/05/29 00:47:26;;;;;;;9.80;2.60;;;;;;;11.95;100.00;100653.86;105908;1254;72705;-41
2023/05/29 00:49:55;;;;;;;3.60;2.20;;;;;;;11.92;100.00;100657.89;105692;1259;60626;-41
2023/05/29 00:52:24;;;;;;;8.90;2.10;;;;;;;11.89;100.00;100661.93;105704;1252;60434;-41
2023/05/29 00:54:52;;;;;;;8.70;2.20;;;;;;;11.86;100.00;100672.20;105894;1256;72858;-41
2023/05/29 00:57:20;;;;;;;4.20;2.10;;;;;;;11.83;100.00;100682.98;105768;1254;64397;-41
2023/05/29 00:59:47;;;;;;;3.40;2.20;;;;;;;11.79;100.00;100687.56;105730;1257;71382;-41
2023/05/29 01:02:16;;;;;;;9.90;2.20;;;;;;;11.76;100.00;100685.71;105663;1257;61075;-41
2023/05/29 01:04:45;;;;;;;6.10;2.40;;;;;;;11.74;100.00;100688.86;105749;1253;60412;-42
2023/05/29 01:07:13;;;;;;;12.80;2.10;;;;;;;11.70;100.00;100693.60;105662;1254;73860;-42
2023/05/29 01:09:42;;;;;;;3.50;2.40;;;;;;;11.67;100.00;100701.11;105710;1254;63939;-41
2023/05/29 01:12:31;;;;;;;5.50;2.00;;;;;;;11.65;100.00;100711.86;105813;1252;71531;-41
2023/05/29 01:15:08;;;;;;;7.20;1.90;;;;;;;11.63;100.00;100723.29;105825;1252;62102;-44
2023/05/29 01:17:39;;;;;;;5.30;2.10;;;;;;;11.62;100.00;100730.05;105734;1257;60345;-43
2023/05/29 01:20:27;;;;;;;4.80;2.20;;;;;;;11.60;100.00;100742.02;105787;1254;72818;-45
2023/05/29 01:23:29;;;;;;;4.60;2.40;;;;;;;11.55;100.00;100755.23;105672;1253;64355;-42
2023/05/29 01:26:25;;;;;;;8.20;2.20;;;;;;;11.53;100.00;100761.52;105883;1254;72626;-45
2023/05/29 01:28:55;;;;;;;5.30;2.20;;;;;;;11.52;100.00;100768.79;105817;1257;60603;-41
2023/05/29 01:31:23;;;;;;;3.40;1.80;;;;;;;11.52;100.00;100774.15;105743;1257;60444;-41
2023/05/29 01:33:55;;;;;;;6.60;2.20;;;;;;;11.49;100.00;100782.13;105761;1257;73828;-41
2023/05/29 01:36:24;;;;;;;10.90;1.90;;;;;;;11.44;100.00;100787.41;105827;1254;65168;-42
2023/05/29 01:38:52;;;;;;;5.80;2.00;;;;;;;11.39;100.00;100789.55;105819;1256;71560;-42
2023/05/29 01:41:21;;;;;;;6.30;2.30;;;;;;;11.37;100.00;100802.73;105764;1256;60614;-42
2023/05/29 01:43:48;;;;;;;7.60;2.20;;;;;;;11.37;100.00;100813.09;105700;1259;60438;-42
2023/05/29 01:46:18;;;;;;;10.20;2.00;;;;;;;11.40;100.00;100829.27;105804;1252;72867;-42
2023/05/29 01:48:45;;;;;;;5.10;1.80;;;;;;;11.44;100.00;100828.88;105750;1256;63917;-42
2023/05/29 01:51:13;;;;;;;3.80;2.20;;;;;;;11.49;100.00;100823.95;105695;1254;71876;-42
2023/05/29 01:53:41;;;;;;;1.80;1.70;;;;;;;11.50;100.00;100819.27;105778;1253;60488;-42
2023/05/29 01:56:09;;;;;;;6.60;1.80;;;;;;;11.50;100.00;100818.59;105886;1254;60510;-42
2023/05/29 01:58:38;;;;;;;4.70;1.90;;;;;;;11.56;100.00;100825.58;105689;1254;72571;-42
2023/05/29 02:01:07;;;;;;;7.50;1.80;;;;;;;11.62;100.00;100828.41;105824;1254;65341;-42
2023/05/29 02:03:35;;;;;;;6.90;1.90;;;;;;;11.70;100.00;100815.81;105770;1254;71719;-42
2023/05/29 02:06:03;;;;;;;7.10;1.60;;;;;;;11.78;100.00;100797.70;105757;1257;60828;-42
2023/05/29 02:08:31;;;;;;;4.00;1.90;;;;;;;11.88;100.00;100766.21;105741;1253;60512;-42
2023/05/29 02:10:58;;;;;;;8.60;1.90;;;;;;;12.00;100.00;100729.02;105749;1254;72539;-42
2023/05/29 02:13:26;;;;;;;5.00;2.30;;;;;;;12.11;100.00;100690.92;105856;1254;63723;-42
2023/05/29 02:15:53;;;;;;;9.70;1.90;;;;;;;12.21;100.00;100660.42;105679;1254;71661;-42
2023/05/29 02:18:23;;;;;;;10.80;1.80;;;;;;;12.29;100.00;100638.64;105753;1254;60497;-42
2023/05/29 02:20:50;;;;;;;8.40;1.70;;;;;;;12.36;100.00;100628.95;105653;1259;60417;-42
2023/05/29 02:23:21;;;;;;;3.90;1.60;;;;;;;12.43;100.00;100623.27;105830;1252;74265;-42
2023/05/29 02:25:51;;;;;;;5.20;1.90;;;;;;;12.49;100.00;100614.63;105779;1252;63367;-42
2023/05/29 02:28:18;;;;;;;6.20;1.90;;;;;;;12.58;100.00;100605.06;105817;1258;71435;-42
2023/05/29 02:30:46;;;;;;;2.80;2.00;;;;;;;12.66;100.00;100601.24;105886;1256;60530;-42
2023/05/29 02:33:14;;;;;;;2.50;1.70;;;;;;;12.73;100.00;100592.07;105812;1253;60534;-42
2023/05/29 02:35:41;;;;;;;5.70;1.40;;;;;;;12.79;100.00;100579.80;105714;1254;72890;-42
2023/05/29 02:38:09;;;;;;;6.60;1.60;;;;;;;12.87;100.00;100573.89;105802;1254;64032;-42
2023/05/29 02:40:36;;;;;;;5.10;1.60;;;;;;;12.92;100.00;100571.98;105895;1256;71417;-42
2023/05/29 02:43:05;;;;;;;4.30;1.70;;;;;;;12.98;100.00;100572.02;105644;1253;60411;-42
2023/05/29 02:45:32;;;;;;;2.60;1.70;;;;;;;13.04;100.00;100568.94;105827;1256;60369;-42
2023/05/29 02:48:00;;;;;;;6.60;1.70;;;;;;;13.09;100.00;100560.30;105678;1257;72843;-42
2023/05/29 02:50:28;;;;;;;4.20;1.50;;;;;;;13.14;100.00;100564.68;105761;1259;65155;-42
2023/05/29 02:52:56;;;;;;;2.00;1.80;;;;;;;13.18;100.00;100566.98;105810;1256;72704;-42
2023/05/29 02:55:23;;;;;;;3.80;1.30;;;;;;;13.23;100.00;100570.83;105864;1257;60482;-42
2023/05/29 02:57:54;;;;;;;4.40;1.80;;;;;;;13.28;100.00;100578.69;105870;1256;60331;-42
2023/05/29 03:00:22;;;;;;;5.70;1.50;;;;;;;13.34;100.00;100578.69;105897;1256;72602;-42
2023/05/29 03:02:50;;;;;;;5.90;1.80;;;;;;;13.40;100.00;100582.52;105780;1253;63997;-41
2023/05/29 03:05:18;;;;;;;4.30;1.50;;;;;;;13.49;100.00;100582.81;105655;1254;71762;-41
2023/05/29 03:07:45;;;;;;;5.40;1.80;;;;;;;13.57;100.00;100592.29;105732;1254;60408;-41
2023/05/29 03:10:17;;;;;;;3.40;1.40;;;;;;;13.66;100.00;100594.45;105700;1254;60495;-42
2023/05/29 03:12:45;;;;;;;3.40;1.60;;;;;;;13.77;100.00;100597.44;105745;1256;73814;-42
2023/05/29 03:15:12;;;;;;;1.60;1.50;;;;;;;13.90;100.00;100601.75;105668;1254;64291;-42
2023/05/29 03:17:40;;;;;;;5.80;1.50;;;;;;;14.02;100.00;100605.73;105675;1258;70731;-42
2023/05/29 03:20:11;;;;;;;6.10;1.50;;;;;;;14.13;100.00;100621.50;105678;1254;60540;-42
2023/05/29 03:22:40;;;;;;;3.80;1.50;;;;;;;14.24;100.00;100631.24;105772;1256;60770;-42
2023/05/29 03:25:09;;;;;;;8.90;1.80;;;;;;;14.35;100.00;100645.48;105815;1254;73926;-42
2023/05/29 03:27:36;;;;;;;5.60;1.30;;;;;;;14.44;100.00;100657.38;105811;1254;64456;-42
2023/05/29 03:30:13;;;;;;;2.90;1.90;;;;;;;14.51;100.00;100677.63;105781;1253;72616;-42
2023/05/29 03:32:41;;;;;;;5.80;1.60;;;;;;;14.56;100.00;100690.52;105850;1253;60425;-42
2023/05/29 03:35:09;;;;;;;3.10;1.30;;;;;;;14.61;100.00;100697.30;105710;1254;61884;-42
2023/05/29 03:37:39;;;;;;;4.30;1.30;;;;;;;14.66;100.00;100702.20;105807;1256;72952;-42
2023/05/29 03:40:07;;;;;;;3.30;1.50;;;;;;;14.69;100.00;100707.65;105673;1259;65268;-42
2023/05/29 03:42:35;;;;;;;5.00;1.30;;;;;;;14.68;100.00;100730.79;105843;1254;72697;-42
2023/05/29 03:45:04;;;;;;;8.20;1.60;;;;;;;14.65;100.00;100738.15;105835;1254;60535;-44
2023/05/29 03:47:32;;;;;;;4.20;1.50;;;;;;;14.64;100.00;100742.01;105723;1253;60581;-45
2023/05/29 03:50:00;;;;;;;7.70;1.50;;;;;;;14.65;100.00;100738.86;105566;1252;73750;-41
2023/05/29 03:52:29;;;;;;;5.50;2.00;;;;;;;14.66;100.00;100735.54;105707;1259;65332;-44
2023/05/29 03:54:57;;;;;;;4.00;1.30;;;;;;;14.66;100.00;100736.91;105704;1256;71426;-43
2023/05/29 03:57:26;;;;;;;6.40;1.40;;;;;;;14.67;100.00;100737.60;105590;1253;287650;-43
2023/05/29 04:01:59;;;;;;;6.40;1.30;;;;;;;14.72;100.00;100755.69;102710;1291;599878;-43
2023/05/29 04:04:26;;;;;;;4.30;1.50;;;;;;;14.76;100.00;100766.34;104830;1270;59978;-45
2023/05/29 04:06:54;;;;;;;2.10;1.30;;;;;;;14.82;100.00;100779.73;104872;1264;59967;-44
2023/05/29 04:09:22;;;;;;;3.40;1.80;;;;;;;14.86;100.00;100792.45;105132;1269;71025;-43
2023/05/29 04:11:51;;;;;;;6.20;1.40;;;;;;;14.94;100.00;100804.36;104870;1270;63907;-43
2023/05/29 04:14:19;;;;;;;1.90;1.50;;;;;;;15.07;100.00;100818.72;104894;1270;72581;-43
2023/05/29 04:16:47;;;;;;;11.70;1.30;;;;;;;15.31;100.00;100820.41;105112;1264;209922;-42
2023/05/29 04:19:15;;;;;;;2.20;1.30;;;;;;;15.58;100.00;100834.14;105257;1266;59345;-43
2023/05/29 04:21:42;;;;;;;5.20;1.40;;;;;;;15.88;97.29;100832.11;105224;1266;70275;-42
2023/05/29 04:24:10;;;;;;;2.50;1.40;;;;;;;16.12;87.62;100832.67;105251;1266;65177;-43
2023/05/29 04:26:41;;;;;;;4.80;1.60;;;;;;;16.33;76.51;100819.04;105126;1269;71362;-43
2023/05/29 04:29:09;;;;;;;4.00;1.30;;;;;;;16.44;75.04;100835.55;105250;1264;59768;-43
2023/05/29 04:31:40;;;;;;;3.80;1.20;;;;;;;16.57;75.11;100850.41;105209;1262;60017;-43
2023/05/29 04:34:07;;;;;;;6.00;1.50;;;;;;;16.75;78.89;100873.43;104878;1269;73501;-42
2023/05/29 04:36:39;;;;;;;8.20;1.70;;;;;;;17.01;74.71;100852.42;105230;1261;64337;-42
2023/05/29 04:39:09;;;;;;;9.30;1.30;;;;;;;17.15;69.91;100843.67;105871;1254;71389;-43
2023/05/29 04:41:37;;;;;;;9.60;1.70;;;;;;;17.26;69.78;100854.93;105842;1259;60221;-41
2023/05/29 04:44:07;;;;;;;6.70;1.50;;;;;;;17.42;68.18;100837.02;105920;1256;59997;-41
2023/05/29 04:46:44;;;;;;;13.10;1.40;;;;;;;17.47;65.78;100833.84;105955;1252;73017;-44
2023/05/29 04:49:12;;;;;;;6.70;1.60;;;;;;;17.49;65.30;100845.96;105775;1260;63982;-41
2023/05/29 04:51:40;;;;;;;12.40;1.70;;;;;;;17.48;64.69;100844.43;105918;1253;72674;-43
2023/05/29 04:54:09;;;;;;;3.80;1.50;;;;;;;17.43;64.39;100846.58;105696;1258;60180;-42
2023/05/29 04:56:39;;;;;;;11.20;1.50;;;;;;;17.38;63.65;100842.78;105806;1258;59672;-42
2023/05/29 04:59:09;;;;;;;4.30;1.80;;;;;;;17.36;64.31;100867.11;105768;1257;73017;-43
2023/05/29 05:01:36;;;;;;;7.40;1.70;;;;;;;17.38;64.60;100874.85;105918;1256;64271;-42
2023/05/29 05:04:04;;;;;;;9.20;1.30;;;;;;;17.36;62.42;100832.91;105731;1251;72748;-42
2023/05/29 05:06:32;;;;;;;2.70;1.50;;;;;;;17.28;62.93;100857.30;105863;1255;60113;-42
2023/05/29 05:09:00;;;;;;;4.30;1.00;;;;;;;17.34;64.15;100882.54;106002;1251;59927;-43
2023/05/29 05:11:28;;;;;;;4.50;1.60;;;;;;;17.44;64.12;100873.23;105888;1251;71856;-42
2023/05/29 05:13:56;;;;;;;5.80;1.30;;;;;;;17.56;63.20;100854.79;105911;1251;63998;-42
2023/05/29 05:16:24;;;;;;;4.50;1.40;;;;;;;17.57;62.21;100837.10;105884;1254;71435;-43
2023/05/29 05:18:52;;;;;;;7.20;1.50;;;;;;;17.57;62.49;100853.16;105847;1257;59710;-43
2023/05/29 05:21:20;;;;;;;4.20;1.20;;;;;;;17.71;63.57;100870.55;105746;1259;59571;-43
2023/05/29 05:23:47;;;;;;;7.50;1.40;;;;;;;17.90;61.25;100821.77;105702;1255;71023;-41
2023/05/29 05:26:28;;;;;;;3.10;1.30;;;;;;;17.90;61.44;100837.84;105905;1254;65309;-42
2023/05/29 05:28:56;;;;;;;3.30;1.50;;;;;;;17.87;61.64;100846.83;105651;1260;72595;-42
2023/05/29 05:31:26;;;;;;;27.50;2.20;;;;;;;17.92;61.96;100857.98;105879;1257;59614;-42
2023/05/29 05:33:54;;;;;;;9.80;1.60;;;;;;;18.03;62.16;100862.79;105914;1251;60037;-42
2023/05/29 05:36:21;;;;;;;11.20;1.40;;;;;;;18.06;61.49;100852.72;105701;1260;72251;-43
2023/05/29 05:38:53;;;;;;;3.40;1.30;;;;;;;18.04;62.06;100869.73;105867;1254;63306;-42
2023/05/29 05:41:22;;;;;;;3.70;1.60;;;;;;;18.08;62.33;100871.29;105721;1260;73178;-43
2023/05/29 05:43:50;;;;;;;5.10;1.70;;;;;;;18.16;62.52;100880.54;105905;1254;59660;-43
2023/05/29 05:46:25;;;;;;;5.30;1.30;;;;;;;18.30;62.62;100883.63;105885;1259;59612;-42
2023/05/29 05:48:57;;;;;;;6.80;1.30;;;;;;;18.34;61.56;100856.38;105929;1260;71824;-42
2023/05/29 05:51:25;;;;;;;65.10;4.10;;;;;;;18.31;60.07;100829.46;105860;1251;65238;-42
2023/05/29 05:53:53;;;;;;;7.30;1.50;;;;;;;18.17;60.61;100861.66;105728;1259;71711;-42
2023/05/29 05:56:21;;;;;;;5.80;1.50;;;;;;;18.04;61.72;100887.02;105731;1261;59758;-42
2023/05/29 05:58:50;;;;;;;8.70;1.60;;;;;;;18.09;62.43;100899.35;105743;1257;59551;-42
2023/05/29 06:01:20;;;;;;;4.60;1.70;;;;;;;18.24;62.01;100885.27;105935;1251;71867;-43
2023/05/29 06:03:48;;;;;;;10.40;1.40;;;;;;;18.43;61.93;100879.77;105889;1253;64036;-42
2023/05/29 06:06:17;;;;;;;2.60;1.40;;;;;;;18.61;61.76;100874.41;105879;1257;72623;-42
2023/05/29 06:08:46;;;;;;;20.60;1.70;;;;;;;18.82;61.25;100853.85;105922;1254;59716;-43
2023/05/29 06:11:15;;;;;;;4.90;1.40;;;;;;;18.97;59.86;100825.52;105891;1257;59560;-42
2023/05/29 06:13:44;;;;;;;5.70;1.60;;;;;;;19.08;59.71;100835.20;105929;1251;73120;-42
2023/05/29 06:16:17;;;;;;;4.40;1.70;;;;;;;19.26;59.70;100843.23;105752;1268;65173;-46
2023/05/29 06:18:45;;;;;;;1.80;1.30;;;;;;;19.59;59.81;100847.89;105672;1257;72616;-42
2023/05/29 06:21:13;;;;;;;4.10;1.70;;;;;;;19.98;58.47;100805.20;105682;1260;59876;-45
2023/05/29 06:23:47;;;;;;;8.20;1.60;;;;;;;20.33;58.28;100799.51;105939;1259;59646;-43
2023/05/29 06:26:16;;;;;;;3.20;1.50;;;;;;;20.66;57.25;100768.98;105715;1252;71789;-42
2023/05/29 06:28:44;;;;;;;3.40;1.70;;;;;;;20.99;55.87;100727.15;105766;1251;64513;-42
2023/05/29 06:31:12;;;;;;;6.40;1.60;;;;;;;21.17;53.98;100661.16;105873;1254;71552;-42
2023/05/29 06:33:40;;;;;;;17.20;2.30;;;;;;;21.09;53.67;100680.81;105848;1254;59624;-43
2023/05/29 06:36:08;;;;;;;5.90;1.60;;;;;;;21.04;53.55;100698.30;105869;1251;60214;-42
2023/05/29 06:38:36;;;;;;;5.20;1.70;;;;;;;21.01;53.85;100727.95;105680;1257;72990;-42
2023/05/29 06:41:05;;;;;;;6.80;1.70;;;;;;;21.14;53.69;100725.77;105894;1261;64032;-42
2023/05/29 06:43:33;;;;;;;5.80;1.70;;;;;;;21.22;53.87;100740.21;105935;1258;71436;-46
2023/05/29 06:46:03;;;;;;;2.70;1.40;;;;;;;21.24;53.50;100726.41;105870;1257;60021;-45
2023/05/29 06:48:34;;;;;;;6.30;1.80;;;;;;;21.22;53.83;100763.19;105689;1261;59599;-45
2023/05/29 06:51:08;;;;;;;5.50;1.70;;;;;;;21.07;52.45;100687.92;105793;1258;71804;-43
2023/05/29 06:53:54;;;;;;;4.90;1.50;;;;;;;20.71;52.82;100746.78;105899;1251;63881;-42
2023/05/29 06:56:23;;;;;;;2.50;1.70;;;;;;;20.65;54.16;100817.95;105739;1259;72655;-42
2023/05/29 06:58:51;;;;;;;14.30;2.40;;;;;;;20.84;54.23;100811.63;105740;1257;59618;-43
2023/05/29 07:01:20;;;;;;;8.60;1.70;;;;;;;20.99;53.43;100769.41;105927;1257;59532;-43
2023/05/29 07:03:56;;;;;;;13.10;1.70;;;;;;;20.85;53.32;100769.85;105867;1257;73094;-43
2023/05/29 07:06:24;;;;;;;5.30;1.80;;;;;;;20.64;53.97;100819.92;105940;1256;63902;-43
2023/05/29 07:08:51;;;;;;;4.70;1.80;;;;;;;20.51;54.01;100815.33;105925;1251;71820;-44
2023/05/29 07:11:19;;;;;;;9.10;1.80;;;;;;;20.50;54.88;100851.14;105682;1251;59993;-41
2023/05/29 07:13:47;;;;;;;7.90;1.60;;;;;;;20.61;55.62;100875.13;105832;1251;60010;-43
2023/05/29 07:16:15;;;;;;;3.70;2.10;;;;;;;20.89;56.28;100883.79;105924;1254;73033;-43
2023/05/29 07:19:13;;;;;;;4.30;1.80;;;;;;;21.25;54.18;100775.46;105880;1257;64002;-43
2023/05/29 07:21:48;;;;;;;13.40;2.20;;;;;;;21.47;53.66;100758.75;105731;1257;73235;-42
2023/05/29 07:24:18;;;;;;;2.00;1.70;;;;;;;21.46;53.76;100767.61;105998;1257;60380;-42
2023/05/29 07:26:46;;;;;;;11.90;1.90;;;;;;;21.55;53.87;100783.05;105710;1252;59541;-42
2023/05/29 07:29:14;;;;;;;6.60;2.10;;;;;;;21.67;54.11;100794.12;105973;1252;72983;-43
2023/05/29 07:31:42;;;;;;;4.50;1.70;;;;;;;21.79;53.80;100792.36;105708;1259;65305;-42
2023/05/29 07:34:10;;;;;;;4.40;1.70;;;;;;;21.89;52.81;100729.09;105725;1260;72597;-42
2023/05/29 07:36:56;;;;;;;9.50;2.00;;;;;;;21.95;52.97;100744.48;105898;1254;59711;-43
2023/05/29 07:39:24;;;;;;;12.20;1.90;;;;;;;22.11;53.49;100782.83;105761;1259;59637;-44
2023/05/29 07:41:53;;;;;;;6.90;1.80;;;;;;;22.22;52.68;100732.78;105928;1257;72165;-44
2023/05/29 07:44:20;;;;;;;7.10;2.40;;;;;;;22.36;52.86;100752.85;105903;1251;64001;-43
2023/05/29 07:46:50;;;;;;;4.20;2.00;;;;;;;22.56;52.25;100717.46;105840;1257;72695;-43
2023/05/29 07:49:37;;;;;;;7.40;1.90;;;;;;;22.63;51.41;100674.83;105849;1254;59947;-42
2023/05/29 07:52:05;;;;;;;6.20;1.70;;;;;;;22.56;52.00;100726.49;105936;1257;59561;-44
2023/05/29 07:54:33;;;;;;;9.50;2.70;;;;;;;22.58;52.40;100751.49;105877;1255;73047;-43
2023/05/29 07:57:09;;;;;;;4.80;2.20;;;;;;;22.69;52.15;100731.80;105938;1251;65249;-42
2023/05/29 07:59:42;;;;;;;3.70;2.40;;;;;;;22.78;51.41;100691.13;105733;1261;72738;-43
2023/05/29 08:02:10;;;;;;;5.30;1.80;;;;;;;22.83;51.47;100696.59;105874;1251;60038;-43
2023/05/29 08:04:43;;;;;;;10.80;1.90;;;;;;;22.84;51.39;100711.09;105880;1255;60191;-43
2023/05/29 08:07:12;;;;;;;7.40;2.00;;;;;;;22.88;51.37;100704.38;105926;1251;73465;-43
2023/05/29 08:09:39;;;;;;;10.80;2.10;;;;;;;22.92;51.65;100717.07;105871;1257;64069;-43
2023/05/29 08:12:07;;;;;;;6.40;2.00;;;;;;;22.96;51.58;100727.90;105889;1257;72738;-43
2023/05/29 08:14:35;;;;;;;6.50;2.20;;;;;;;23.07;51.57;100741.83;105831;1252;61696;-43
2023/05/29 08:17:03;;;;;;;6.40;2.20;;;;;;;23.06;50.78;100679.58;105909;1257;60459;-43
2023/05/29 08:19:31;;;;;;;8.90;2.20;;;;;;;22.78;51.65;100758.44;105902;1252;73826;-43
2023/05/29 08:21:59;;;;;;;11.30;2.20;;;;;;;22.69;51.43;100757.63;105923;1251;63810;-43
2023/05/29 08:24:27;;;;;;;3.80;1.90;;;;;;;22.58;51.83;100777.52;105898;1255;71260;-42
2023/05/29 08:26:55;;;;;;;4.90;2.10;;;;;;;22.47;52.84;100846.56;105865;1256;60584;-43
2023/05/29 08:29:22;;;;;;;5.10;2.50;;;;;;;22.54;53.64;100874.98;105844;1257;60360;-43
2023/05/29 08:31:50;;;;;;;5.00;2.20;;;;;;;22.89;53.72;100843.27;105835;1254;72920;-43
2023/05/29 08:34:18;;;;;;;8.40;2.70;;;;;;;23.38;52.11;100734.48;105886;1257;65146;-43
2023/05/29 08:36:45;;;;;;;8.40;2.60;;;;;;;23.72;50.61;100626.70;105902;1251;72636;-43
2023/05/29 08:39:13;;;;;;;9.60;2.10;;;;;;;23.83;50.82;100660.94;105837;1257;60460;-43
2023/05/29 08:42:01;;;;;;;7.90;2.30;;;;;;;24.04;49.68;100571.30;105925;1256;60540;-46
2023/05/29 08:44:30;;;;;;;5.30;2.10;;;;;;;24.14;48.94;100527.31;105576;1257;73776;-43
2023/05/29 08:46:59;;;;;;;11.10;2.60;;;;;;;24.06;48.66;100525.59;105762;1251;64249;-46
2023/05/29 08:49:27;;;;;;;10.30;2.40;;;;;;;24.05;49.39;100585.92;105975;1251;72798;-45
2023/05/29 08:52:03;;;;;;;11.50;2.60;;;;;;;24.27;49.61;100627.13;105879;1251;60444;-43
2023/05/29 08:54:31;;;;;;;18.90;2.70;;;;;;;24.46;48.22;100504.80;105975;1251;60533;-42
2023/05/29 08:57:01;;;;;;;4.60;2.10;;;;;;;24.50;48.29;100490.68;105716;1257;74378;-43
2023/05/29 08:59:29;;;;;;;6.50;2.80;;;;;;;24.60;48.04;100484.48;105893;1257;65142;-43
2023/05/29 09:01:57;;;;;;;8.20;2.20;;;;;;;24.70;47.78;100461.31;105704;1253;71002;-43
2023/05/29 09:04:25;;;;;;;5.70;2.60;;;;;;;24.74;47.68;100467.91;105849;1257;60523;-43
2023/05/29 09:06:52;;;;;;;7.70;2.10;;;;;;;24.84;47.47;100459.73;105855;1257;60357;-43
2023/05/29 09:09:20;;;;;;;6.50;2.40;;;;;;;24.93;46.75;100403.79;105907;1251;72989;-44
2023/05/29 09:11:48;;;;;;;5.60;2.60;;;;;;;24.95;46.50;100364.26;105894;1251;65241;-44
2023/05/29 09:14:37;;;;;;;3.80;2.20;;;;;;;24.96;46.26;100361.41;105718;1257;72607;-43
2023/05/29 09:17:06;;;;;;;4.80;2.00;;;;;;;24.89;46.46;100402.89;105950;1257;60754;-43
2023/05/29 09:19:35;;;;;;;4.60;2.50;;;;;;;24.87;46.14;100383.84;105878;1251;60361;-44
2023/05/29 09:22:08;;;;;;;3.00;2.00;;;;;;;24.81;46.02;100385.14;105947;1258;72625;-44
2023/05/29 09:24:37;;;;;;;11.50;2.80;;;;;;;24.74;46.28;100394.23;105952;1251;64237;-43
2023/05/29 09:27:07;;;;;;;5.20;2.40;;;;;;;24.74;46.62;100440.76;105935;1254;71461;-44
2023/05/29 09:29:39;;;;;;;6.80;2.40;;;;;;;24.82;46.09;100393.39;105916;1254;60520;-46
2023/05/29 09:32:12;;;;;;;8.70;2.00;;;;;;;24.91;46.04;100393.02;105929;1257;60337;-44
2023/05/29 09:34:42;;;;;;;3.10;2.00;;;;;;;25.08;46.88;100479.73;105869;1257;72155;-44
2023/05/29 09:37:11;;;;;;;4.40;2.30;;;;;;;25.28;45.99;100408.42;105870;1257;64292;-42
2023/05/29 09:39:42;;;;;;;3.70;2.40;;;;;;;25.32;45.87;100365.89;105885;1251;72703;-42
2023/05/29 09:42:09;;;;;;;7.90;2.80;;;;;;;25.44;45.22;100322.67;105914;1257;60447;-43
2023/05/29 09:44:37;;;;;;;9.40;2.70;;;;;;;25.42;45.57;100324.51;105922;1257;60453;-43
2023/05/29 09:47:05;;;;;;;6.00;2.40;;;;;;;25.36;46.09;100406.04;105965;1251;73017;-43
2023/05/29 09:49:32;;;;;;;7.40;2.50;;;;;;;25.51;45.21;100324.13;105907;1251;65268;-43
2023/05/29 09:52:00;;;;;;;5.30;2.40;;;;;;;25.47;44.88;100271.45;105862;1254;71823;-43
2023/05/29 09:54:30;;;;;;;5.20;2.30;;;;;;;25.48;45.18;100328.41;105693;1254;60539;-43
2023/05/29 09:57:00;;;;;;;10.20;2.30;;;;;;;25.64;45.92;100416.15;105913;1257;60431;-44
2023/05/29 09:59:28;;;;;;;8.80;3.10;;;;;;;25.88;45.48;100358.48;105913;1251;72544;-44
2023/05/29 10:02:03;;;;;;;11.70;3.30;;;;;;;26.08;45.45;100337.91;105700;1251;65894;-43
2023/05/29 10:04:35;;;;;;;10.30;2.50;;;;;;;26.10;44.21;100219.13;105876;1254;71369;-43
2023/05/29 10:07:11;;;;;;;8.30;2.30;;;;;;;26.01;43.63;100138.36;105895;1257;60504;-43
2023/05/29 10:09:43;;;;;;;21.10;2.80;;;;;;;26.11;44.12;100207.52;105961;1251;60533;-43
2023/05/29 10:12:11;;;;;;;11.10;2.80;;;;;;;26.23;43.79;100166.14;105900;1257;73825;-46
2023/05/29 10:14:40;;;;;;;20.70;3.90;;;;;;;26.21;43.58;100140.14;105896;1257;67619;-43
2023/05/29 10:17:08;;;;;;;11.50;3.10;;;;;;;26.14;44.15;100236.75;105720;1251;72625;-43
2023/05/29 10:19:36;;;;;;;9.40;2.40;;;;;;;26.28;43.80;100179.02;105735;1257;60536;-42
2023/05/29 10:22:05;;;;;;;6.00;3.00;;;;;;;26.33;42.20;100017.25;105966;1257;60520;-43
2023/05/29 10:24:33;;;;;;;6.80;2.10;;;;;;;26.11;42.33;100013.48;105906;1251;73016;-43
2023/05/29 10:27:01;;;;;;;4.30;2.60;;;;;;;26.00;42.69;100068.12;105906;1257;65144;-43
2023/05/29 10:29:36;;;;;;;3.40;2.20;;;;;;;26.02;43.16;100115.54;105856;1251;72597;-43
2023/05/29 10:32:13;;;;;;;8.30;2.40;;;;;;;26.21;42.77;100092.67;105894;1257;60523;-43
2023/05/29 10:35:18;;;;;;;3.50;3.10;;;;;;;26.39;43.42;100153.23;105888;1254;60494;-44
2023/05/29 10:37:52;;;;;;;5.40;2.70;;;;;;;26.82;43.29;100151.55;105853;1257;73595;-44
2023/05/29 10:40:25;;;;;;;8.70;2.50;;;;;;;27.20;42.28;100022.85;105909;1251;63916;-43
2023/05/29 10:42:57;;;;;;;10.70;3.20;;;;;;;27.39;40.98;99844.98;105939;1257;72780;-44
2023/05/29 10:45:31;;;;;;;4.70;2.70;;;;;;;27.29;40.72;99822.75;105866;1253;60530;-44
2023/05/29 10:48:12;;;;;;;13.20;3.00;;;;;;;26.66;41.12;99892.88;105930;1257;60469;-44
2023/05/29 10:50:41;;;;;;;8.10;2.60;;;;;;;25.97;42.63;100075.24;105892;1251;72599;-43
2023/05/29 10:53:10;;;;;;;6.60;2.70;;;;;;;25.70;43.42;100205.54;105899;1257;63903;-43
2023/05/29 10:55:39;;;;;;;6.00;3.00;;;;;;;25.75;44.06;100286.23;105931;1258;71473;-43
2023/05/29 10:58:07;;;;;;;4.20;2.60;;;;;;;25.80;43.81;100265.98;105927;1257;60472;-43
2023/05/29 11:00:45;;;;;;;5.10;2.60;;;;;;;25.61;43.94;100281.94;105915;1257;60418;-43
2023/05/29 11:03:21;;;;;;;6.60;2.80;;;;;;;25.26;44.40;100341.50;105747;1251;73699;-44
2023/05/29 11:06:10;;;;;;;10.10;3.20;;;;;;;25.03;45.04;100429.00;105678;1257;64138;-43
2023/05/29 11:08:46;;;;;;;7.10;3.00;;;;;;;25.09;45.48;100500.49;105786;1253;72604;-45
2023/05/29 11:11:15;;;;;;;6.80;2.70;;;;;;;25.28;45.08;100450.27;105866;1255;60546;-45
2023/05/29 11:13:51;;;;;;;9.60;3.50;;;;;;;25.27;44.91;100414.66;105868;1256;60405;-43
2023/05/29 11:16:35;;;;;;;24.00;10.70;;;;;;;25.23;46.57;100589.64;105904;1257;73899;-43
2023/05/29 11:19:04;;;;;;;7.90;5.80;;;;;;;25.52;45.92;100517.08;105770;1259;64493;-43
2023/05/29 11:21:49;;;;;;;10.40;3.10;;;;;;;25.73;43.95;100318.73;105857;1251;72662;-44
2023/05/29 11:24:24;;;;;;;3.20;2.70;;;;;;;25.50;42.84;100163.84;105890;1253;60408;-43
2023/05/29 11:26:55;;;;;;;3.40;2.90;;;;;;;25.28;43.42;100242.12;105868;1257;60333;-44